createdAt,value
2018-11-05T00:01:10.205Z,87.10
2018-11-05T00:03:38.345Z,87.31
2018-11-05T00:06:06.590Z,87.59
2018-11-05T00:08:34.992Z,87.56
2018-11-05T00:11:03.266Z,87.65
2018-11-05T00:13:31.634Z,87.77
2018-11-05T00:15:59.783Z,88.03
2018-11-05T00:18:27.922Z,88.11
2018-11-05T00:20:56.158Z,87.96
2018-11-05T00:23:24.278Z,88.29
2018-11-05T00:25:52.404Z,88.84
2018-11-05T00:28:20.566Z,89.29
2018-11-05T00:30:48.710Z,89.00
2018-11-05T00:33:16.813Z,89.93
2018-11-05T00:35:44.984Z,89.81
2018-11-05T00:38:13.256Z,89.37
2018-11-05T00:40:41.405Z,89.71
2018-11-05T00:43:09.502Z,89.51
2018-11-05T00:45:37.689Z,90.71
2018-11-05T00:48:05.993Z,90.45
2018-11-05T00:50:34.102Z,90.29
2018-11-05T00:53:02.408Z,90.80
2018-11-05T00:55:30.496Z,91.24
2018-11-05T00:57:58.841Z,91.90
2018-11-05T01:00:26.990Z,91.29
2018-11-05T01:02:55.267Z,91.66
2018-11-05T01:05:23.401Z,92.09
2018-11-05T01:07:51.646Z,91.55
2018-11-05T01:10:19.768Z,91.54
2018-11-05T01:12:48.083Z,91.80
2018-11-05T01:15:17.021Z,91.63
2018-11-05T01:17:45.350Z,91.26
2018-11-05T01:20:14.501Z,91.29
2018-11-05T01:22:42.699Z,91.84
2018-11-05T01:25:10.996Z,91.86
2018-11-05T01:27:39.127Z,91.78
2018-11-05T01:30:10.869Z,91.16
2018-11-05T01:32:39.247Z,91.50
2018-11-05T01:35:09.572Z,90.49
2018-11-05T01:37:37.715Z,90.62
2018-11-05T01:40:08.979Z,91.30
2018-11-05T01:42:37.441Z,90.83
2018-11-05T01:45:07.597Z,90.96
2018-11-05T01:47:35.769Z,90.38
2018-11-05T01:50:04.687Z,89.96
2018-11-05T01:52:32.773Z,90.21
2018-11-05T01:55:01.163Z,91.28
2018-11-05T01:57:29.369Z,90.83
2018-11-05T01:59:57.873Z,91.05
2018-11-05T02:02:26.199Z,91.39
2018-11-05T02:04:54.333Z,91.58
2018-11-05T02:07:22.829Z,90.55
2018-11-05T02:09:51.285Z,90.60
2018-11-05T02:12:19.545Z,90.82
2018-11-05T02:14:48.070Z,90.86
2018-11-05T02:17:16.180Z,92.44
2018-11-05T02:19:44.551Z,92.54
2018-11-05T02:22:12.777Z,93.20
2018-11-05T02:24:41.113Z,92.89
2018-11-05T02:27:09.263Z,91.83
2018-11-05T02:29:37.507Z,92.45
2018-11-05T02:32:05.733Z,92.75
2018-11-05T02:34:34.142Z,92.30
2018-11-05T02:37:02.978Z,91.10
2018-11-05T02:39:31.416Z,91.47
2018-11-05T02:42:00.048Z,92.79
2018-11-05T02:44:28.164Z,92.60
2018-11-05T02:46:57.226Z,92.00
2018-11-05T02:49:25.628Z,91.79
2018-11-05T02:51:53.755Z,91.67
2018-11-05T02:54:22.199Z,91.22
2018-11-05T02:56:50.322Z,91.87
2018-11-05T02:59:18.650Z,92.28
2018-11-05T03:01:46.793Z,91.38
2018-11-05T03:04:14.904Z,90.77
2018-11-05T03:06:43.032Z,89.75
2018-11-05T03:09:11.999Z,90.86
2018-11-05T03:11:40.566Z,90.66
2018-11-05T03:14:09.144Z,90.34
2018-11-05T03:16:37.471Z,90.77
2018-11-05T03:19:05.679Z,90.71
2018-11-05T03:21:34.064Z,89.86
2018-11-05T03:24:02.216Z,89.48
2018-11-05T03:26:30.928Z,89.52
2018-11-05T03:28:59.228Z,89.71
2018-11-05T03:31:27.521Z,90.05
2018-11-05T03:33:56.015Z,90.63
2018-11-05T03:36:24.503Z,91.16
2018-11-05T03:38:53.033Z,91.31
2018-11-05T03:41:21.191Z,91.41
2018-11-05T03:43:49.654Z,90.54
2018-11-05T03:46:17.985Z,90.16
2018-11-05T03:48:46.128Z,90.05
2018-11-05T03:51:14.598Z,89.95
2018-11-05T03:53:42.781Z,89.85
2018-11-05T03:56:10.968Z,90.01
2018-11-05T03:58:39.060Z,89.60
2018-11-05T04:01:07.389Z,90.59
2018-11-05T04:03:35.542Z,91.00
2018-11-05T04:06:03.670Z,90.96
2018-11-05T04:08:31.873Z,91.66
2018-11-05T04:11:01.220Z,91.53
2018-11-05T04:13:29.494Z,91.75
2018-11-05T04:15:57.810Z,92.23
2018-11-05T04:18:25.865Z,92.34
2018-11-05T04:20:54.232Z,92.33
2018-11-05T04:23:22.409Z,93.38
2018-11-05T04:25:50.873Z,92.94
2018-11-05T04:28:18.996Z,93.02
2018-11-05T04:30:47.084Z,92.25
2018-11-05T04:33:15.206Z,92.44
2018-11-05T04:35:43.504Z,91.87
2018-11-05T04:38:11.632Z,92.02
2018-11-05T04:40:39.854Z,91.84
2018-11-05T04:43:08.014Z,91.71
2018-11-05T04:45:36.436Z,92.01
2018-11-05T04:48:04.609Z,91.63
2018-11-05T04:50:33.073Z,92.36
2018-11-05T04:53:01.373Z,93.38
2018-11-05T04:55:29.674Z,93.45
2018-11-05T04:57:57.799Z,92.88
2018-11-05T05:00:26.123Z,93.02
2018-11-05T05:02:54.369Z,93.65
2018-11-05T05:05:22.514Z,93.74
2018-11-05T05:07:50.817Z,93.80
2018-11-05T05:10:19.106Z,93.14
2018-11-05T05:12:47.226Z,92.89
2018-11-05T05:15:15.648Z,92.96
2018-11-05T05:17:43.812Z,92.38
2018-11-05T05:20:14.339Z,91.74
2018-11-05T05:22:42.935Z,92.12
2018-11-05T05:25:11.018Z,92.39
2018-11-05T05:27:39.463Z,92.76
2018-11-05T05:30:13.217Z,92.00
2018-11-05T05:32:42.301Z,92.85
2018-11-05T05:35:10.485Z,91.94
2018-11-05T05:37:38.837Z,92.34
2018-11-05T05:40:07.491Z,91.91
2018-11-05T05:42:36.182Z,91.67
2018-11-05T05:45:05.701Z,90.99
2018-11-05T05:47:33.844Z,91.06
2018-11-05T05:50:02.395Z,92.41
2018-11-05T05:52:30.525Z,91.88
2018-11-05T05:54:58.676Z,92.22
2018-11-05T05:57:27.013Z,92.48
2018-11-05T05:59:56.076Z,92.54
2018-11-05T06:02:24.351Z,92.65
2018-11-05T06:04:52.915Z,93.45
2018-11-05T06:07:21.043Z,93.64
2018-11-05T06:09:49.211Z,93.61
2018-11-05T06:12:17.481Z,92.59
2018-11-05T06:14:45.649Z,91.58
2018-11-05T06:17:13.830Z,91.31
2018-11-05T06:19:41.945Z,91.37
2018-11-05T06:22:10.160Z,91.10
2018-11-05T06:24:38.446Z,90.79
2018-11-05T06:27:06.630Z,90.93
2018-11-05T06:29:34.866Z,90.95
2018-11-05T06:32:03.612Z,90.89
2018-11-05T06:34:31.719Z,91.45
2018-11-05T06:37:00.055Z,91.09
2018-11-05T06:39:28.163Z,90.75
2018-11-05T06:41:56.524Z,91.46
2018-11-05T06:44:24.847Z,91.29
2018-11-05T06:46:52.980Z,91.67
2018-11-05T06:49:21.116Z,91.39
2018-11-05T06:51:49.245Z,91.24
2018-11-05T06:54:17.382Z,91.11
2018-11-05T06:56:45.536Z,91.26
2018-11-05T06:59:14.340Z,90.80
2018-11-05T07:01:42.628Z,89.99
2018-11-05T07:04:10.756Z,90.79
2018-11-05T07:06:38.906Z,90.61
2018-11-05T07:09:10.100Z,89.72
2018-11-05T07:11:38.581Z,90.26
2018-11-05T07:14:06.916Z,90.19
2018-11-05T07:16:35.762Z,90.40
2018-11-05T07:19:04.574Z,91.04
2018-11-05T07:21:32.517Z,90.36
2018-11-05T07:24:00.821Z,89.47
2018-11-05T07:26:29.144Z,89.68
2018-11-05T07:28:57.242Z,88.88
2018-11-05T07:31:25.372Z,89.73
2018-11-05T07:33:53.616Z,89.93
2018-11-05T07:36:21.665Z,90.51
2018-11-05T07:38:49.771Z,89.63
2018-11-05T07:41:17.935Z,89.97
2018-11-05T07:43:46.015Z,89.14
2018-11-05T07:46:14.140Z,88.82
2018-11-05T07:48:43.031Z,88.81
2018-11-05T07:51:11.177Z,87.35
2018-11-05T07:53:40.122Z,85.58
2018-11-05T07:56:08.270Z,86.40
2018-11-05T07:58:36.594Z,86.01
2018-11-05T08:01:05.359Z,85.57
2018-11-05T08:03:33.582Z,85.71
2018-11-05T08:06:02.331Z,85.93
2018-11-05T08:08:30.753Z,85.57
2018-11-05T08:10:58.803Z,86.21
2018-11-05T08:13:26.945Z,85.77
2018-11-05T08:15:55.096Z,85.32
2018-11-05T08:18:23.381Z,85.12
2018-11-05T08:20:51.436Z,84.54
2018-11-05T08:23:19.543Z,84.81
2018-11-05T08:25:48.002Z,84.13
2018-11-05T08:28:16.142Z,84.40
2018-11-05T08:30:44.401Z,83.50
2018-11-05T08:33:13.553Z,83.61
2018-11-05T08:35:41.997Z,84.36
2018-11-05T08:38:10.824Z,83.18
2018-11-05T08:40:38.942Z,82.59
2018-11-05T08:43:07.086Z,81.48
2018-11-05T08:45:35.874Z,82.07
2018-11-05T08:48:04.038Z,83.55
2018-11-05T08:50:32.342Z,82.82
2018-11-05T08:53:01.112Z,81.22
2018-11-05T08:55:29.234Z,80.26
2018-11-05T08:57:58.140Z,80.08
2018-11-05T09:00:32.113Z,79.90
2018-11-05T09:03:01.190Z,80.92
2018-11-05T09:05:29.638Z,81.19
2018-11-05T09:07:57.789Z,82.76
2018-11-05T09:10:26.491Z,82.35
2018-11-05T09:12:54.490Z,81.03
2018-11-05T09:15:23.407Z,79.69
2018-11-05T09:17:51.827Z,79.56
2018-11-05T09:20:23.302Z,79.24
2018-11-05T09:22:52.021Z,78.38
2018-11-05T09:25:20.183Z,78.34
2018-11-05T09:27:48.441Z,77.61
2018-11-05T09:30:21.452Z,77.76
2018-11-05T09:32:49.631Z,77.12
2018-11-05T09:35:17.800Z,75.78
2018-11-05T09:37:45.997Z,77.01
2018-11-05T09:40:16.695Z,76.67
2018-11-05T09:42:45.395Z,75.78
2018-11-05T09:45:18.449Z,74.30
2018-11-05T09:47:46.861Z,71.81
2018-11-05T09:50:15.434Z,71.38
2018-11-05T09:52:43.583Z,70.15
2018-11-05T09:55:12.574Z,68.23
2018-11-05T09:57:41.212Z,64.75
2018-11-05T10:00:15.130Z,60.67
2018-11-05T10:02:48.994Z,55.65
2018-11-05T10:05:18.095Z,54.12
2018-11-05T10:07:46.192Z,44.87
2018-11-05T10:10:15.345Z,39.58
2018-11-05T10:12:43.745Z,35.43
2018-11-05T10:15:12.952Z,33.25
2018-11-05T10:17:41.339Z,31.50
2018-11-05T10:20:13.532Z,32.18
2018-11-05T10:22:41.835Z,32.32
2018-11-05T10:25:11.019Z,33.24
2018-11-05T10:27:39.183Z,34.22
2018-11-05T10:30:17.065Z,36.23
2018-11-05T10:32:45.868Z,36.56
2018-11-05T10:35:15.101Z,35.35
2018-11-05T10:37:43.515Z,34.45
2018-11-05T10:40:14.442Z,34.89
2018-11-05T10:42:43.723Z,34.59
2018-11-05T10:45:13.246Z,36.07
2018-11-05T10:47:41.448Z,36.71
2018-11-05T10:50:12.403Z,35.11
2018-11-05T10:52:40.963Z,34.67
2018-11-05T10:55:10.126Z,32.20
2018-11-05T10:57:38.694Z,30.47
2018-11-05T11:00:22.401Z,30.01
2018-11-05T11:02:56.424Z,31.18
2018-11-05T11:05:25.266Z,31.16
2018-11-05T11:07:54.488Z,28.92
2018-11-05T11:10:23.092Z,27.72
2018-11-05T11:12:51.923Z,27.45
2018-11-05T11:15:20.464Z,25.68
2018-11-05T11:17:48.499Z,25.39
2018-11-05T11:20:16.655Z,24.48
2018-11-05T11:22:44.930Z,23.76
2018-11-05T11:25:13.059Z,24.83
2018-11-05T11:27:41.901Z,26.36
2018-11-05T11:30:12.675Z,27.12
2018-11-05T11:32:41.413Z,27.95
2018-11-05T11:35:10.231Z,29.97
2018-11-05T11:37:38.653Z,30.68
2018-11-05T11:40:09.901Z,32.41
2018-11-05T11:42:42.029Z,33.74
2018-11-05T11:45:11.316Z,34.92
2018-11-05T11:47:39.569Z,39.44
2018-11-05T11:50:10.242Z,40.46
2018-11-05T11:52:38.491Z,41.53
2018-11-05T11:55:09.015Z,41.43
2018-11-05T11:57:37.383Z,41.88
2018-11-05T12:00:08.405Z,42.85
2018-11-05T12:02:36.535Z,43.92
2018-11-05T12:05:06.072Z,44.79
2018-11-05T12:07:34.299Z,45.14
2018-11-05T12:10:02.447Z,45.64
2018-11-05T12:12:30.637Z,45.46
2018-11-05T12:14:58.923Z,45.42
2018-11-05T12:17:26.988Z,46.33
2018-11-05T12:19:55.097Z,46.39
2018-11-05T12:22:23.263Z,46.93
2018-11-05T12:24:51.523Z,46.21
2018-11-05T12:27:19.631Z,47.01
2018-11-05T12:29:47.747Z,46.53
2018-11-05T12:32:16.008Z,46.87
2018-11-05T12:34:44.117Z,46.81
2018-11-05T12:37:12.263Z,46.79
2018-11-05T12:39:40.615Z,46.78
2018-11-05T12:42:08.721Z,47.52
2018-11-05T12:44:37.224Z,48.49
2018-11-05T12:47:05.816Z,48.24
2018-11-05T12:49:33.966Z,48.14
2018-11-05T12:52:02.102Z,48.91
2018-11-05T12:54:30.753Z,50.51
2018-11-05T12:56:58.854Z,50.35
2018-11-05T12:59:27.648Z,50.56
2018-11-05T13:01:58.793Z,51.68
2018-11-05T13:04:27.726Z,52.12
2018-11-05T13:06:56.061Z,52.53
2018-11-05T13:09:30.855Z,53.90
2018-11-05T13:11:58.971Z,54.39
2018-11-05T13:14:27.218Z,54.12
2018-11-05T13:16:56.005Z,55.21
2018-11-05T13:19:24.165Z,55.56
2018-11-05T13:21:53.123Z,56.15
2018-11-05T13:24:21.280Z,56.13
2018-11-05T13:26:49.970Z,56.01
2018-11-05T13:29:18.769Z,54.70
2018-11-05T13:31:46.902Z,54.48
2018-11-05T13:34:15.262Z,55.22
2018-11-05T13:36:43.409Z,55.80
2018-11-05T13:39:11.594Z,55.67
2018-11-05T13:41:39.746Z,55.21
2018-11-05T13:44:07.895Z,55.73
2018-11-05T13:46:36.398Z,55.20
2018-11-05T13:49:05.508Z,56.73
2018-11-05T13:51:33.243Z,57.68
2018-11-05T13:54:01.472Z,57.06
2018-11-05T13:56:29.607Z,57.83
2018-11-05T13:58:57.797Z,57.53
2018-11-05T14:01:26.059Z,58.82
2018-11-05T14:03:54.406Z,59.16
2018-11-05T14:06:22.538Z,58.75
2018-11-05T14:08:50.815Z,58.61
2018-11-05T14:11:19.551Z,59.38
2018-11-05T14:13:47.766Z,60.02
2018-11-05T14:16:15.863Z,60.30
2018-11-05T14:18:43.999Z,60.65
2018-11-05T14:21:12.117Z,60.62
2018-11-05T14:23:40.831Z,60.77
2018-11-05T14:26:09.034Z,59.04
2018-11-05T14:28:37.612Z,59.49
2018-11-05T14:31:05.574Z,59.03
2018-11-05T14:33:33.708Z,59.18
2018-11-05T14:36:01.831Z,59.86
2018-11-05T14:38:30.038Z,59.36
2018-11-05T14:40:58.119Z,59.60
2018-11-05T14:43:26.894Z,60.01
2018-11-05T14:45:55.012Z,60.31
2018-11-05T14:48:23.166Z,61.04
2018-11-05T14:50:52.031Z,60.86
2018-11-05T14:53:20.040Z,61.13
2018-11-05T14:55:48.280Z,61.46
2018-11-05T14:58:16.439Z,62.15
2018-11-05T15:00:44.540Z,61.86
2018-11-05T15:03:12.947Z,62.49
2018-11-05T15:05:41.154Z,61.69
2018-11-05T15:08:09.304Z,60.90
2018-11-05T15:10:38.825Z,62.16
2018-11-05T15:13:07.423Z,62.42
2018-11-05T15:15:36.545Z,62.66
2018-11-05T15:18:04.941Z,63.18
2018-11-05T15:20:33.062Z,63.35
2018-11-05T15:23:01.213Z,63.67
2018-11-05T15:25:29.355Z,64.21
2018-11-05T15:27:57.530Z,64.58
2018-11-05T15:30:26.541Z,65.19
2018-11-05T15:32:54.762Z,65.53
2018-11-05T15:35:23.670Z,65.91
2018-11-05T15:37:51.817Z,66.40
2018-11-05T15:40:21.293Z,65.61
2018-11-05T15:42:50.381Z,65.79
2018-11-05T15:45:19.801Z,66.77
2018-11-05T15:47:48.663Z,66.74
2018-11-05T15:50:18.013Z,66.77
2018-11-05T15:52:47.042Z,67.01
2018-11-05T15:55:15.042Z,67.76
2018-11-05T15:57:43.179Z,68.43
2018-11-05T16:00:15.413Z,67.85
2018-11-05T16:02:44.594Z,68.22
2018-11-05T16:05:13.650Z,67.93
2018-11-05T16:07:41.825Z,68.04
2018-11-05T16:10:10.954Z,68.50
2018-11-05T16:12:39.563Z,68.84
2018-11-05T16:15:08.926Z,68.65
2018-11-05T16:17:37.464Z,69.12
2018-11-05T16:20:08.568Z,68.76
2018-11-05T16:22:37.566Z,68.63
2018-11-05T16:25:05.846Z,69.57
2018-11-05T16:27:34.050Z,69.74
2018-11-05T16:30:02.424Z,69.93
2018-11-05T16:32:31.609Z,69.57
2018-11-05T16:34:59.844Z,69.82
2018-11-05T16:37:27.970Z,70.45
2018-11-05T16:39:56.996Z,70.40
2018-11-05T16:42:26.978Z,70.41
2018-11-05T16:44:55.148Z,70.76
2018-11-05T16:47:24.246Z,70.64
2018-11-05T16:49:52.376Z,70.42
2018-11-05T16:52:20.669Z,70.73
2018-11-05T16:54:49.385Z,70.08
2018-11-05T16:57:17.698Z,71.40
2018-11-05T16:59:46.832Z,71.26
2018-11-05T17:02:16.810Z,70.86
2018-11-05T17:04:45.914Z,71.30
2018-11-05T17:07:14.052Z,71.59
2018-11-05T17:09:42.232Z,71.61
2018-11-05T17:12:10.402Z,72.03
2018-11-05T17:14:38.717Z,71.79
2018-11-05T17:17:06.908Z,71.73
2018-11-05T17:19:35.031Z,72.13
2018-11-05T17:22:03.241Z,71.72
2018-11-05T17:24:31.406Z,72.11
2018-11-05T17:26:59.720Z,71.94
2018-11-05T17:29:28.303Z,71.89
2018-11-05T17:31:56.458Z,71.94
2018-11-05T17:34:24.629Z,72.21
2018-11-05T17:36:53.893Z,72.42
2018-11-05T17:39:22.039Z,72.60
2018-11-05T17:41:50.203Z,72.07
2018-11-05T17:44:18.449Z,71.72
2018-11-05T17:46:46.707Z,71.26
2018-11-05T17:49:14.886Z,71.50
2018-11-05T17:51:43.139Z,72.06
2018-11-05T17:54:11.278Z,71.60
2018-11-05T17:56:40.447Z,71.12
2018-11-05T17:59:08.614Z,71.11
2018-11-05T18:01:37.654Z,71.57
2018-11-05T18:04:07.366Z,71.23
2018-11-05T18:06:35.521Z,71.21
2018-11-05T18:09:05.261Z,71.36
2018-11-05T18:11:33.629Z,71.35
2018-11-05T18:14:01.762Z,71.71
2018-11-05T18:16:30.657Z,72.12
2018-11-05T18:18:58.742Z,72.38
2018-11-05T18:21:26.873Z,72.59
2018-11-05T18:23:55.013Z,72.65
2018-11-05T18:26:23.213Z,72.94
2018-11-05T18:28:52.161Z,72.93
2018-11-05T18:31:20.977Z,73.53
2018-11-05T18:33:49.288Z,73.68
2018-11-05T18:36:17.470Z,73.82
2018-11-05T18:38:45.554Z,73.27
2018-11-05T18:41:13.726Z,73.94
2018-11-05T18:43:41.886Z,74.12
2018-11-05T18:46:10.088Z,74.00
2018-11-05T18:48:38.892Z,74.14
2018-11-05T18:51:07.040Z,73.96
2018-11-05T18:53:35.222Z,74.13
2018-11-05T18:56:03.661Z,74.54
2018-11-05T18:58:32.678Z,75.01
2018-11-05T19:01:00.853Z,74.09
2018-11-05T19:03:29.116Z,74.78
2018-11-05T19:05:57.241Z,74.38
2018-11-05T19:08:25.403Z,75.17
2018-11-05T19:10:53.532Z,75.55
2018-11-05T19:13:22.507Z,75.56
2018-11-05T19:15:50.769Z,76.31
2018-11-05T19:18:19.719Z,76.08
2018-11-05T19:20:48.204Z,76.34
2018-11-05T19:23:17.033Z,76.00
2018-11-05T19:25:45.119Z,76.84
2018-11-05T19:28:13.290Z,76.96
2018-11-05T19:30:41.579Z,76.96
2018-11-05T19:33:09.567Z,76.91
2018-11-05T19:35:38.022Z,77.75
2018-11-05T19:38:06.157Z,76.65
2018-11-05T19:40:35.016Z,77.88
2018-11-05T19:43:03.315Z,77.73
2018-11-05T19:45:31.379Z,78.01
2018-11-05T19:47:59.544Z,78.05
2018-11-05T19:50:27.667Z,79.07
2018-11-05T19:52:55.819Z,78.29
2018-11-05T19:55:23.923Z,78.81
2018-11-05T19:57:52.714Z,78.34
2018-11-05T20:00:23.526Z,78.59
2018-11-05T20:02:52.217Z,78.40
2018-11-05T20:05:20.453Z,78.73
2018-11-05T20:07:49.469Z,78.56
2018-11-05T20:10:18.333Z,77.90
2018-11-05T20:12:46.629Z,79.10
2018-11-05T20:15:15.256Z,79.24
2018-11-05T20:17:44.186Z,79.59
2018-11-05T20:20:14.393Z,79.34
2018-11-05T20:22:43.324Z,79.36
2018-11-05T20:25:12.385Z,79.90
2018-11-05T20:27:41.425Z,79.86
2018-11-05T20:30:14.922Z,80.50
2018-11-05T20:32:44.122Z,80.42
2018-11-05T20:35:12.046Z,79.88
2018-11-05T20:37:40.196Z,80.62
2018-11-05T20:40:11.608Z,80.19
2018-11-05T20:42:40.117Z,80.44
2018-11-05T20:45:08.304Z,81.19
2018-11-05T20:47:36.530Z,80.01
2018-11-05T20:50:06.018Z,80.78
2018-11-05T20:52:34.254Z,80.08
2018-11-05T20:55:02.450Z,80.29
2018-11-05T20:57:30.732Z,80.58
2018-11-05T20:59:58.865Z,80.65
2018-11-05T21:02:27.044Z,81.76
2018-11-05T21:04:55.203Z,81.13
2018-11-05T21:07:23.492Z,80.89
2018-11-05T21:09:51.786Z,80.94
2018-11-05T21:12:20.233Z,81.86
2018-11-05T21:14:48.537Z,81.94
2018-11-05T21:17:16.758Z,82.28
2018-11-05T21:19:44.871Z,82.27
2018-11-05T21:22:13.413Z,82.85
2018-11-05T21:24:41.521Z,83.19
2018-11-05T21:27:09.757Z,83.28
2018-11-05T21:29:37.853Z,82.90
2018-11-05T21:32:06.032Z,82.82
2018-11-05T21:34:34.229Z,82.95
2018-11-05T21:37:02.445Z,82.93
2018-11-05T21:39:30.587Z,83.97
2018-11-05T21:41:58.754Z,83.60
2018-11-05T21:44:27.122Z,84.48
2018-11-05T21:46:55.254Z,84.87
2018-11-05T21:49:23.430Z,84.61
2018-11-05T21:51:51.779Z,84.38
2018-11-05T21:54:20.076Z,83.79
2018-11-05T21:56:48.751Z,84.72
2018-11-05T21:59:17.111Z,85.94
2018-11-05T22:01:45.264Z,85.99
2018-11-05T22:04:13.410Z,85.36
2018-11-05T22:06:41.683Z,85.71
2018-11-05T22:09:09.945Z,85.48
2018-11-05T22:11:39.036Z,84.55
2018-11-05T22:14:07.621Z,84.77
2018-11-05T22:16:37.423Z,84.03
2018-11-05T22:19:05.681Z,84.59
2018-11-05T22:21:33.961Z,85.10
2018-11-05T22:24:02.170Z,84.79
2018-11-05T22:26:30.305Z,85.95
2018-11-05T22:28:58.548Z,85.96
2018-11-05T22:31:26.692Z,85.58
2018-11-05T22:33:54.936Z,86.49
2018-11-05T22:36:23.786Z,86.33
2018-11-05T22:38:51.931Z,86.35
2018-11-05T22:41:20.075Z,85.89
2018-11-05T22:43:48.167Z,85.89
2018-11-05T22:46:16.360Z,86.15
2018-11-05T22:48:44.716Z,85.73
2018-11-05T22:51:12.978Z,85.83
2018-11-05T22:53:41.164Z,85.90
2018-11-05T22:56:09.338Z,86.08
2018-11-05T22:58:37.509Z,86.44
2018-11-05T23:01:09.243Z,85.66
2018-11-05T23:03:37.501Z,85.81
2018-11-05T23:06:05.640Z,85.64
2018-11-05T23:08:33.823Z,85.62
2018-11-05T23:11:01.926Z,85.43
2018-11-05T23:13:30.075Z,85.61
2018-11-05T23:15:58.241Z,86.26
2018-11-05T23:18:26.769Z,86.67
2018-11-05T23:20:54.870Z,85.95
2018-11-05T23:23:23.024Z,85.72
2018-11-05T23:25:51.159Z,85.57
2018-11-05T23:28:19.452Z,85.16
2018-11-05T23:30:47.571Z,85.71
2018-11-05T23:33:16.157Z,85.57
2018-11-05T23:35:44.284Z,85.96
2018-11-05T23:38:12.410Z,86.46
2018-11-05T23:40:40.555Z,86.12
2018-11-05T23:43:08.665Z,86.23
2018-11-05T23:45:36.776Z,86.20
2018-11-05T23:48:05.121Z,85.29
2018-11-05T23:50:33.250Z,84.58
2018-11-05T23:53:01.383Z,84.88
2018-11-05T23:55:29.728Z,85.66
2018-11-05T23:57:57.839Z,85.63
